Time;durP1;ratioP1;P1;durP2;ratioP2;P2;SDS_P1;SDS_P2;PMS_P1;PMS_P2;Temp;Humidity;BMP_temperature;BMP_pressure;BME280_temperature;BME280_humidity;BME280_pressure;Samples;Min_cycle;Max_cycle;Signal;HPM_P1;HPM_P2
2021/09/02 00:01:12;;;;;;;13.90;5.50;;;;;;;12.53;75.88;101407.23;1727824;82;21055;-76
2021/09/02 00:03:38;;;;;;;8.33;5.42;;;;;;;12.53;75.92;101403.23;1712589;82;20987;-75
2021/09/02 00:06:04;;;;;;;9.28;5.80;;;;;;;12.50;75.96;101404.39;1733778;82;21007;-76
2021/09/02 00:08:30;;;;;;;7.35;4.62;;;;;;;12.51;76.01;101403.89;1729556;82;21012;-76
2021/09/02 00:10:56;;;;;;;6.05;4.37;;;;;;;12.52;76.05;101405.59;1708452;82;20995;-76
2021/09/02 00:13:22;;;;;;;7.78;4.25;;;;;;;12.51;76.10;101404.73;1701056;83;21618;-76
2021/09/02 00:15:48;;;;;;;6.60;4.30;;;;;;;12.49;76.13;101405.38;1705856;82;20999;-76
2021/09/02 00:18:14;;;;;;;16.50;4.62;;;;;;;12.51;76.17;101414.10;1723411;82;21012;-76
2021/09/02 00:20:40;;;;;;;5.58;4.08;;;;;;;12.53;76.23;101410.76;1704801;83;21096;-76
2021/09/02 00:23:06;;;;;;;7.42;3.87;;;;;;;12.55;76.25;101405.27;1746383;82;21102;-76
2021/09/02 00:25:32;;;;;;;8.30;4.45;;;;;;;12.57;76.28;101409.10;1702047;83;21019;-76
2021/09/02 00:27:58;;;;;;;7.25;4.17;;;;;;;12.58;76.32;101408.95;1699297;83;21035;-76
2021/09/02 00:30:24;;;;;;;9.55;4.20;;;;;;;12.57;76.37;101407.77;1691240;83;21060;-76
2021/09/02 00:32:50;;;;;;;5.80;4.12;;;;;;;12.57;76.41;101417.13;1735065;82;21098;-76
2021/09/02 00:35:16;;;;;;;7.05;4.30;;;;;;;12.52;76.47;101418.44;1708462;83;21035;-76
2021/09/02 00:37:42;;;;;;;6.50;4.22;;;;;;;12.50;76.50;101415.09;1717840;83;21493;-76
2021/09/02 00:40:09;;;;;;;7.80;4.25;;;;;;;12.50;76.55;101420.45;1726729;82;21043;-76
2021/09/02 00:42:35;;;;;;;7.35;5.30;;;;;;;12.48;76.62;101422.45;1742254;82;20991;-76
2021/09/02 00:45:01;;;;;;;9.28;4.50;;;;;;;12.45;76.66;101422.73;1692944;83;21186;-76
2021/09/02 00:47:27;;;;;;;8.80;4.75;;;;;;;12.43;76.69;101420.73;1717959;83;20988;-76
2021/09/02 00:49:53;;;;;;;7.65;4.45;;;;;;;12.43;76.73;101418.05;1718206;83;21086;-76
2021/09/02 00:52:32;;;;;;;8.48;5.03;;;;;;;12.41;76.78;101420.06;1723599;82;20896;-76
2021/09/02 00:55:03;;;;;;;9.68;5.53;;;;;;;12.41;76.83;101423.23;1715538;83;21020;-75
2021/09/02 00:57:31;;;;;;;6.50;4.37;;;;;;;12.38;76.87;101421.72;1732009;82;21842;-75
2021/09/02 01:00:06;;;;;;;8.75;4.70;;;;;;;12.37;76.92;101419.19;1717240;82;21000;-75
2021/09/02 01:02:32;;;;;;;18.90;4.55;;;;;;;12.35;76.96;101415.31;1709471;82;21338;-75
2021/09/02 01:04:58;;;;;;;7.12;4.92;;;;;;;12.34;77.02;101411.47;1686953;83;21063;-76
2021/09/02 01:07:25;;;;;;;7.20;4.00;;;;;;;12.32;77.04;101416.97;1682068;83;21019;-75
2021/09/02 01:09:53;;;;;;;7.53;5.10;;;;;;;12.30;77.12;101428.83;1712848;82;21151;-75
2021/09/02 01:12:35;;;;;;;9.48;4.83;;;;;;;12.28;77.16;101423.63;1710800;83;21011;-75
2021/09/02 01:15:13;;;;;;;8.15;5.25;;;;;;;12.24;77.20;101423.62;1713060;82;21504;-75
2021/09/02 01:17:44;;;;;;;7.60;4.87;;;;;;;12.20;77.27;101420.91;1711130;83;21051;-76
2021/09/02 01:20:13;;;;;;;10.50;5.67;;;;;;;12.16;77.33;101420.02;1712602;82;21138;-75
2021/09/02 01:22:42;;;;;;;12.45;7.05;;;;;;;12.10;77.39;101422.84;1709927;83;21209;-75
2021/09/02 01:25:14;;;;;;;11.22;6.00;;;;;;;12.06;77.40;101421.46;1737349;82;21008;-76
2021/09/02 01:27:43;;;;;;;8.85;5.25;;;;;;;11.99;77.49;101422.58;1725916;82;22007;-75
2021/09/02 01:30:12;;;;;;;9.73;6.17;;;;;;;11.94;77.53;101421.34;1710706;82;21067;-75
2021/09/02 01:32:41;;;;;;;9.75;5.95;;;;;;;11.89;77.58;101419.64;1710944;82;22238;-75
2021/09/02 01:35:10;;;;;;;11.65;6.92;;;;;;;11.87;77.64;101426.95;1709790;83;21107;-75
2021/09/02 01:37:45;;;;;;;11.50;7.50;;;;;;;11.83;77.68;101420.23;1710223;82;21066;-75
2021/09/02 01:40:32;;;;;;;8.33;6.05;;;;;;;11.80;77.71;101423.22;1712069;82;21023;-75
2021/09/02 01:42:59;;;;;;;10.55;5.97;;;;;;;11.75;77.76;101422.85;1711672;82;21508;-75
2021/09/02 01:45:25;;;;;;;14.78;8.23;;;;;;;11.67;77.85;101420.05;1711179;83;21015;-75
2021/09/02 01:47:51;;;;;;;20.40;9.58;;;;;;;11.63;77.90;101429.36;1709691;83;21137;-75
2021/09/02 01:50:21;;;;;;;12.23;7.28;;;;;;;11.55;77.95;101427.44;1717221;82;21019;-75
2021/09/02 01:52:52;;;;;;;22.50;10.40;;;;;;;11.48;78.02;101431.21;1692207;82;21064;-75
2021/09/02 01:55:18;;;;;;;26.10;14.00;;;;;;;11.40;78.11;101435.12;1711702;82;21106;-75
2021/09/02 01:57:44;;;;;;;25.55;15.38;;;;;;;11.33;78.18;101438.56;1709763;83;21080;-75
2021/09/02 02:00:12;;;;;;;18.95;11.65;;;;;;;11.28;78.26;101436.33;1716343;82;21144;-75
2021/09/02 02:02:39;;;;;;;16.35;9.40;;;;;;;11.21;78.32;101432.58;1727637;82;21063;-75
2021/09/02 02:05:06;;;;;;;35.78;14.75;;;;;;;11.15;78.38;101429.17;1697274;84;21003;-75
2021/09/02 02:07:32;;;;;;;24.63;13.32;;;;;;;11.11;78.42;101427.78;1714496;83;21067;-75
2021/09/02 02:09:58;;;;;;;26.40;13.72;;;;;;;11.08;78.50;101423.23;1716192;82;21558;-75
2021/09/02 02:12:24;;;;;;;26.02;14.33;;;;;;;11.05;78.57;101431.02;1718956;83;21196;-75
2021/09/02 02:14:50;;;;;;;27.20;14.28;;;;;;;11.00;78.61;101427.98;1716344;82;20884;-75
2021/09/02 02:17:16;;;;;;;20.50;12.53;;;;;;;10.96;78.68;101431.92;1718695;83;21039;-75
2021/09/02 02:19:42;;;;;;;20.72;12.73;;;;;;;10.94;78.77;101423.23;1719358;83;21888;-75
2021/09/02 02:22:08;;;;;;;17.85;9.90;;;;;;;10.91;78.80;101422.16;1723399;83;21011;-75
2021/09/02 02:24:34;;;;;;;18.30;10.58;;;;;;;10.88;78.87;101423.80;1725166;81;21155;-75
2021/09/02 02:27:00;;;;;;;16.80;8.78;;;;;;;10.84;78.93;101419.73;1749304;81;20992;-75
2021/09/02 02:29:26;;;;;;;14.70;9.08;;;;;;;10.80;78.96;101417.05;1719273;82;21122;-75
2021/09/02 02:31:52;;;;;;;15.25;9.70;;;;;;;10.80;79.04;101418.38;1718012;82;21059;-75
2021/09/02 02:34:18;;;;;;;15.25;8.88;;;;;;;10.80;79.09;101419.71;1725001;83;21011;-75
2021/09/02 02:36:44;;;;;;;19.77;9.78;;;;;;;10.79;79.16;101420.69;1738328;81;21483;-75
2021/09/02 02:39:10;;;;;;;23.77;10.23;;;;;;;10.78;79.22;101416.33;1709332;83;21030;-75
2021/09/02 02:41:36;;;;;;;16.37;9.58;;;;;;;10.78;79.28;101414.99;1700902;82;21082;-75
2021/09/02 02:44:02;;;;;;;14.15;8.35;;;;;;;10.76;79.33;101415.65;1717112;82;21022;-75
2021/09/02 02:46:28;;;;;;;10.85;7.85;;;;;;;10.76;79.40;101423.66;1716461;83;21022;-75
2021/09/02 02:48:54;;;;;;;13.43;7.40;;;;;;;10.75;79.46;101433.48;1719363;83;21097;-75
2021/09/02 02:51:20;;;;;;;12.40;7.05;;;;;;;10.75;79.51;101427.30;1719540;82;21039;-75
2021/09/02 02:53:46;;;;;;;13.20;7.50;;;;;;;10.73;79.57;101430.09;1719835;82;21046;-75
2021/09/02 02:56:12;;;;;;;13.38;6.97;;;;;;;10.71;79.64;101424.57;1718288;83;21039;-75
2021/09/02 02:58:38;;;;;;;14.98;8.53;;;;;;;10.70;79.69;101425.55;1718589;83;21721;-76
2021/09/02 03:01:04;;;;;;;16.73;8.18;;;;;;;10.69;79.74;101426.55;1718325;82;21759;-75
2021/09/02 03:03:30;;;;;;;14.18;8.53;;;;;;;10.66;79.81;101426.85;1726205;82;21020;-75
2021/09/02 03:05:56;;;;;;;15.03;8.85;;;;;;;10.63;79.86;101427.11;1721875;83;21078;-75
2021/09/02 03:08:22;;;;;;;13.65;7.92;;;;;;;10.59;79.93;101427.89;1725474;81;21035;-75
2021/09/02 03:10:48;;;;;;;10.85;6.83;;;;;;;10.57;79.96;101439.22;1715866;82;21070;-75
2021/09/02 03:13:15;;;;;;;13.43;7.30;;;;;;;10.57;80.00;101433.03;1718927;83;21444;-75
2021/09/02 03:15:41;;;;;;;16.82;7.70;;;;;;;10.55;80.03;101425.69;1719286;83;21583;-75
2021/09/02 03:18:07;;;;;;;13.38;6.97;;;;;;;10.51;80.09;101429.98;1721533;82;21531;-75
2021/09/02 03:20:33;;;;;;;14.33;8.60;;;;;;;10.52;80.14;101434.80;1705939;82;21758;-74
2021/09/02 03:22:59;;;;;;;20.52;11.35;;;;;;;10.51;80.19;101441.98;1724913;82;21041;-75
2021/09/02 03:25:25;;;;;;;15.60;8.73;;;;;;;10.49;80.24;101435.08;1714152;82;22031;-75
2021/09/02 03:27:51;;;;;;;17.62;7.80;;;;;;;10.49;80.29;101434.59;1730400;81;21023;-75
2021/09/02 03:30:17;;;;;;;15.23;8.60;;;;;;;10.49;80.33;101442.59;1727070;81;21010;-75
2021/09/02 03:32:43;;;;;;;17.40;9.25;;;;;;;10.48;80.37;101440.09;1719232;83;21877;-75
2021/09/02 03:35:09;;;;;;;25.32;12.68;;;;;;;10.45;80.41;101442.53;1726969;82;21467;-75
2021/09/02 03:37:35;;;;;;;37.78;19.42;;;;;;;10.44;80.46;101444.88;1742020;82;21960;-75
2021/09/02 03:40:01;;;;;;;27.93;13.98;;;;;;;10.42;80.53;101448.16;1730956;82;21008;-75
2021/09/02 03:42:27;;;;;;;16.25;9.33;;;;;;;10.41;80.57;101450.47;1732662;82;21007;-75
2021/09/02 03:44:53;;;;;;;16.65;9.13;;;;;;;10.39;80.62;101460.94;1717933;83;21012;-75
2021/09/02 03:47:19;;;;;;;15.70;8.20;;;;;;;10.38;80.67;101457.42;1723776;83;21007;-75
2021/09/02 03:49:45;;;;;;;12.85;8.08;;;;;;;10.36;80.71;101454.06;1725020;82;21049;-75
2021/09/02 03:52:11;;;;;;;16.77;8.50;;;;;;;10.33;80.74;101456.18;1714929;83;20980;-75
2021/09/02 03:54:37;;;;;;;17.52;9.15;;;;;;;10.31;80.77;101457.64;1723656;83;20995;-75
2021/09/02 03:57:03;;;;;;;12.13;8.00;;;;;;;10.31;80.81;101456.83;1723089;83;20951;-75
2021/09/02 03:59:29;;;;;;;18.15;8.53;;;;;;;10.28;80.85;101461.93;1716503;81;21146;-76
2021/09/02 04:01:55;;;;;;;18.52;9.70;;;;;;;10.27;80.89;101460.27;1715833;82;21163;-75
2021/09/02 04:04:21;;;;;;;14.70;8.13;;;;;;;10.27;80.93;101457.60;1720523;82;21051;-76
2021/09/02 04:06:47;;;;;;;11.55;7.25;;;;;;;10.28;80.96;101456.59;1724680;83;21051;-76
2021/09/02 04:09:13;;;;;;;11.57;7.25;;;;;;;10.29;80.99;101458.78;1752635;81;21508;-75
2021/09/02 04:11:39;;;;;;;12.50;7.08;;;;;;;10.28;81.04;101455.27;1708573;82;21498;-75
2021/09/02 04:14:06;;;;;;;18.48;8.30;;;;;;;10.27;81.08;101453.60;1702525;82;21133;-75
2021/09/02 04:16:32;;;;;;;14.83;7.97;;;;;;;10.27;81.12;101460.27;1701799;83;21062;-76
2021/09/02 04:18:58;;;;;;;22.35;8.98;;;;;;;10.29;81.15;101458.29;1723697;82;21468;-75
2021/09/02 04:21:24;;;;;;;18.75;8.95;;;;;;;10.32;81.22;101459.82;1723233;83;21536;-75
2021/09/02 04:23:50;;;;;;;19.60;9.90;;;;;;;10.33;81.21;101459.69;1723791;83;21090;-75
2021/09/02 04:26:16;;;;;;;34.83;10.72;;;;;;;10.37;81.27;101465.09;1715552;82;21795;-75
2021/09/02 04:28:42;;;;;;;29.48;10.98;;;;;;;10.40;81.29;101460.80;1692794;83;21007;-75
2021/09/02 04:31:08;;;;;;;25.85;10.90;;;;;;;10.46;81.31;101464.71;1716327;82;21106;-75
2021/09/02 04:33:34;;;;;;;26.42;10.32;;;;;;;10.50;81.34;101460.30;1739878;82;20912;-75
2021/09/02 04:36:00;;;;;;;19.85;10.25;;;;;;;10.55;81.39;101457.69;1743104;82;20988;-75
2021/09/02 04:38:26;;;;;;;22.98;13.20;;;;;;;10.59;81.40;101460.42;1722591;82;21075;-76
2021/09/02 04:40:52;;;;;;;24.47;10.82;;;;;;;10.96;81.67;101461.28;1748846;82;21051;-76
2021/09/02 04:43:18;;;;;;;24.05;9.93;;;;;;;11.77;81.83;101460.94;1721621;82;21062;-76
2021/09/02 04:45:44;;;;;;;28.50;9.80;;;;;;;12.68;81.76;101455.67;1719164;83;21452;-76
2021/09/02 04:48:18;;;;;;;21.80;9.28;;;;;;;13.30;81.45;101460.71;1718788;82;20936;-76
2021/09/02 04:50:46;;;;;;;20.35;9.83;;;;;;;13.65;81.13;101456.97;1739621;82;21697;-76
2021/09/02 04:53:12;;;;;;;16.10;8.45;;;;;;;13.93;80.93;101456.20;1709924;83;20975;-76
2021/09/02 04:55:37;;;;;;;15.13;7.72;;;;;;;14.25;80.91;101462.91;1700360;83;21092;-76
2021/09/02 04:58:07;;;;;;;14.87;8.13;;;;;;;14.83;80.86;101455.17;1721735;82;20911;-76
2021/09/02 05:00:35;;;;;;;17.67;9.03;;;;;;;15.68;80.56;101456.19;1704924;82;21066;-77
2021/09/02 05:03:01;;;;;;;13.93;7.95;;;;;;;16.42;80.01;101456.31;1701273;82;21222;-76
2021/09/02 05:05:27;;;;;;;17.62;8.55;;;;;;;17.07;79.44;101450.27;1734669;81;21012;-77
2021/09/02 05:07:54;;;;;;;16.75;8.03;;;;;;;17.44;78.70;101460.09;1723198;82;21372;-77
2021/09/02 05:10:20;;;;;;;18.07;8.40;;;;;;;17.69;78.02;101461.98;1735223;82;21063;-77
2021/09/02 05:12:46;;;;;;;10.72;7.40;;;;;;;17.85;77.43;101467.97;1719931;82;21011;-77
2021/09/02 05:15:13;;;;;;;15.45;7.53;;;;;;;17.84;76.89;101466.80;1719109;83;21217;-76
2021/09/02 05:17:39;;;;;;;13.05;8.30;;;;;;;17.85;76.56;101472.53;1719324;82;21015;-77
2021/09/02 05:20:06;;;;;;;17.35;8.58;;;;;;;17.97;76.00;101476.41;1719476;82;21029;-77
2021/09/02 05:22:32;;;;;;;15.83;8.90;;;;;;;17.71;75.07;101475.59;1714772;83;21016;-77
2021/09/02 05:24:58;;;;;;;12.28;8.18;;;;;;;17.13;74.64;101472.45;1713150;82;20991;-77
2021/09/02 05:27:24;;;;;;;10.40;7.80;;;;;;;16.56;74.80;101470.86;1712361;83;21164;-77
2021/09/02 05:29:50;;;;;;;12.07;7.17;;;;;;;16.27;75.05;101481.00;1707046;82;21026;-77
2021/09/02 05:32:16;;;;;;;9.35;6.80;;;;;;;16.30;75.21;101471.72;1708491;82;21573;-77
2021/09/02 05:34:42;;;;;;;9.53;6.90;;;;;;;16.37;75.30;101480.23;1698740;83;21484;-77
2021/09/02 05:37:08;;;;;;;16.17;7.75;;;;;;;16.54;75.32;101482.81;1714038;82;21020;-77
2021/09/02 05:39:34;;;;;;;11.53;6.60;;;;;;;16.64;75.25;101476.14;1713635;82;21128;-77
2021/09/02 05:42:00;;;;;;;13.78;7.37;;;;;;;16.65;75.26;101480.52;1714097;82;21544;-77
2021/09/02 05:44:26;;;;;;;9.80;7.35;;;;;;;16.79;75.20;101477.52;1708513;82;21485;-77
2021/09/02 05:46:55;;;;;;;14.05;8.20;;;;;;;16.82;75.04;101482.53;1695082;82;21551;-77
2021/09/02 05:49:21;;;;;;;15.48;8.38;;;;;;;16.98;74.92;101483.73;1685791;85;21552;-77
2021/09/02 05:51:47;;;;;;;13.03;7.85;;;;;;;17.17;74.68;101488.55;1710171;81;21974;-76
2021/09/02 05:54:13;;;;;;;12.82;9.13;;;;;;;17.37;74.59;101492.38;1712033;82;20956;-75
2021/09/02 05:56:39;;;;;;;13.70;8.10;;;;;;;17.39;74.43;101495.70;1709791;83;21059;-75
2021/09/02 05:59:05;;;;;;;12.70;8.03;;;;;;;17.25;74.24;101496.55;1713662;83;21605;-76
2021/09/02 06:01:31;;;;;;;12.10;8.58;;;;;;;17.16;74.11;101498.19;1714266;82;21525;-76
2021/09/02 06:03:57;;;;;;;11.38;7.80;;;;;;;17.09;74.00;101496.75;1721313;82;21177;-76
2021/09/02 06:06:23;;;;;;;11.22;7.90;;;;;;;17.15;73.79;101491.96;1708643;83;21000;-76
2021/09/02 06:08:49;;;;;;;12.88;7.00;;;;;;;17.22;73.71;101492.89;1725303;82;21472;-76
2021/09/02 06:11:15;;;;;;;8.18;6.40;;;;;;;17.30;73.51;101491.96;1705926;82;21004;-76
2021/09/02 06:13:41;;;;;;;9.20;6.45;;;;;;;17.41;73.37;101501.77;1710410;82;20897;-76
2021/09/02 06:16:07;;;;;;;9.68;5.70;;;;;;;17.60;73.17;101494.13;1705612;84;22830;-76
2021/09/02 06:18:33;;;;;;;9.50;6.00;;;;;;;17.68;73.01;101491.33;1704907;84;21056;-76
2021/09/02 06:20:59;;;;;;;11.03;6.30;;;;;;;17.78;72.82;101499.44;1705700;84;21087;-76
2021/09/02 06:23:25;;;;;;;12.75;6.75;;;;;;;17.86;72.65;101491.75;1705550;83;21059;-76
2021/09/02 06:25:51;;;;;;;7.42;5.25;;;;;;;17.96;72.53;101487.72;1705677;84;21011;-76
2021/09/02 06:28:17;;;;;;;7.37;5.62;;;;;;;18.08;72.37;101486.70;1705842;83;21162;-76
2021/09/02 06:30:43;;;;;;;11.28;5.75;;;;;;;18.12;72.17;101491.20;1705668;84;21536;-76
2021/09/02 06:33:10;;;;;;;8.60;5.67;;;;;;;18.22;71.95;101489.86;1705948;83;21536;-76
2021/09/02 06:35:36;;;;;;;8.45;6.17;;;;;;;18.20;71.74;101489.70;1705841;84;21016;-76
2021/09/02 06:38:04;;;;;;;13.62;6.15;;;;;;;18.30;71.61;101484.30;1705778;84;21043;-76
2021/09/02 06:40:30;;;;;;;10.60;6.72;;;;;;;18.34;71.35;101485.59;1705761;83;21148;-76
2021/09/02 06:42:56;;;;;;;13.55;7.22;;;;;;;18.26;71.24;101485.72;1705919;84;21016;-76
2021/09/02 06:45:22;;;;;;;18.00;6.67;;;;;;;18.33;71.09;101490.66;1705986;83;21052;-76
2021/09/02 06:47:48;;;;;;;15.40;7.47;;;;;;;18.31;71.00;101492.73;1705857;84;21074;-76
2021/09/02 06:50:14;;;;;;;11.22;6.62;;;;;;;18.47;70.89;101497.05;1705913;84;21060;-76
2021/09/02 06:52:41;;;;;;;9.25;7.00;;;;;;;18.57;70.76;101487.28;1705642;84;21505;-76
2021/09/02 06:55:09;;;;;;;11.83;8.28;;;;;;;18.77;70.68;101490.97;1705673;84;21063;-76
2021/09/02 06:57:35;;;;;;;11.18;7.22;;;;;;;18.69;70.47;101489.23;1705875;84;21544;-76
2021/09/02 07:00:05;;;;;;;9.70;7.05;;;;;;;18.80;70.41;101485.16;1706050;84;21059;-76
2021/09/02 07:02:31;;;;;;;11.22;7.25;;;;;;;18.82;70.23;101488.52;1705745;84;21060;-76
2021/09/02 07:04:57;;;;;;;15.88;8.48;;;;;;;18.70;70.21;101484.67;1705704;84;21182;-76
2021/09/02 07:07:23;;;;;;;15.58;9.65;;;;;;;18.71;70.18;101484.48;1705807;84;20949;-76
2021/09/02 07:09:49;;;;;;;14.60;8.95;;;;;;;18.84;70.10;101492.69;1705511;84;21036;-76
2021/09/02 07:12:15;;;;;;;11.43;7.80;;;;;;;19.02;70.04;101490.83;1705847;84;20948;-76
2021/09/02 07:14:41;;;;;;;12.43;7.75;;;;;;;18.95;69.89;101494.01;1705863;84;21016;-76
2021/09/02 07:17:07;;;;;;;13.90;7.20;;;;;;;18.94;69.93;101500.44;1705485;84;21164;-76
2021/09/02 07:19:33;;;;;;;17.77;8.35;;;;;;;19.04;69.82;101497.38;1705642;83;21000;-76
2021/09/02 07:21:59;;;;;;;13.88;7.17;;;;;;;19.11;69.78;101504.50;1705555;83;21107;-75
2021/09/02 07:24:25;;;;;;;12.07;7.37;;;;;;;19.31;69.72;101506.83;1703001;84;21528;-76
2021/09/02 07:26:51;;;;;;;12.13;6.47;;;;;;;19.50;69.57;101507.97;1703036;84;21492;-76
2021/09/02 07:29:18;;;;;;;11.38;7.12;;;;;;;19.57;69.48;101510.19;1702974;84;22021;-75
2021/09/02 07:31:44;;;;;;;9.93;6.72;;;;;;;19.68;69.42;101516.38;1702925;84;21007;-76
2021/09/02 07:34:10;;;;;;;11.53;7.15;;;;;;;19.82;69.24;101518.62;1702711;84;21060;-76
2021/09/02 07:36:36;;;;;;;13.85;6.87;;;;;;;19.94;69.17;101519.20;1702996;84;20865;-76
2021/09/02 07:39:03;;;;;;;10.15;6.25;;;;;;;20.07;69.07;101522.45;1702900;84;21015;-76
2021/09/02 07:41:29;;;;;;;8.73;6.28;;;;;;;20.09;68.92;101516.84;1702919;84;22831;-76
2021/09/02 07:43:55;;;;;;;9.30;6.40;;;;;;;20.16;68.87;101526.62;1702944;84;21829;-76
2021/09/02 07:46:21;;;;;;;10.80;7.30;;;;;;;20.20;68.68;101525.18;1703002;84;20928;-76
2021/09/02 07:48:47;;;;;;;11.80;7.12;;;;;;;20.23;68.58;101525.31;1702709;84;21619;-76
2021/09/02 07:51:15;;;;;;;10.78;6.33;;;;;;;20.19;68.45;101535.73;1702986;84;21013;-76
2021/09/02 07:53:42;;;;;;;8.10;6.08;;;;;;;20.25;68.26;101525.41;1702910;84;21644;-76
2021/09/02 07:56:08;;;;;;;9.95;6.22;;;;;;;20.06;68.09;101530.77;1702846;84;21012;-76
2021/09/02 07:58:34;;;;;;;14.20;6.62;;;;;;;19.99;68.03;101530.75;1702933;84;21007;-76
2021/09/02 08:01:00;;;;;;;12.03;6.40;;;;;;;19.97;67.94;101527.42;1702808;84;21012;-76
2021/09/02 08:03:26;;;;;;;9.88;6.62;;;;;;;20.00;67.79;101535.14;1702923;84;21051;-76
2021/09/02 08:05:53;;;;;;;13.40;6.78;;;;;;;20.11;67.74;101533.20;1702673;84;21745;-76
2021/09/02 08:08:20;;;;;;;8.78;5.90;;;;;;;20.10;67.63;101534.23;1702800;84;21489;-76
2021/09/02 08:10:48;;;;;;;7.83;6.30;;;;;;;20.13;67.54;101537.88;1702683;84;21019;-76
2021/09/02 08:13:13;;;;;;;11.40;5.92;;;;;;;20.19;67.48;101538.95;1702943;84;21035;-76
2021/09/02 08:15:40;;;;;;;11.00;5.92;;;;;;;20.16;67.34;101534.75;1703205;84;21504;-76
2021/09/02 08:18:06;;;;;;;10.58;5.55;;;;;;;20.37;67.35;101537.33;1702732;84;21653;-76
2021/09/02 08:20:32;;;;;;;7.45;5.72;;;;;;;20.53;67.21;101528.49;1703026;84;21459;-76
2021/09/02 08:22:58;;;;;;;10.15;5.40;;;;;;;20.54;67.09;101528.81;1703534;84;20952;-76
2021/09/02 08:25:24;;;;;;;10.72;5.53;;;;;;;20.63;66.96;101526.20;1705902;83;21052;-76
2021/09/02 08:27:50;;;;;;;8.00;5.37;;;;;;;20.66;66.83;101525.27;1705532;84;21047;-76
2021/09/02 08:30:20;;;;;;;7.97;5.58;;;;;;;20.68;66.67;101530.49;1705600;84;21748;-76
2021/09/02 08:32:47;;;;;;;5.87;3.80;;;;;;;20.59;66.57;101532.56;1705549;83;20995;-76
2021/09/02 08:35:22;;;;;;;9.10;4.30;;;;;;;20.64;66.53;101537.37;1705586;84;21536;-76
2021/09/02 08:37:50;;;;;;;9.18;4.72;;;;;;;20.60;66.12;101537.46;1705651;83;21038;-76
2021/09/02 08:40:18;;;;;;;8.78;4.58;;;;;;;20.64;65.64;101532.78;1705558;84;21503;-76
2021/09/02 08:42:45;;;;;;;5.37;4.53;;;;;;;20.72;65.32;101534.46;1705841;83;21800;-76
2021/09/02 08:45:11;;;;;;;7.47;4.50;;;;;;;20.77;65.06;101534.65;1705533;84;21020;-76
2021/09/02 08:47:37;;;;;;;9.08;4.60;;;;;;;20.76;64.77;101544.66;1705661;84;21024;-76
2021/09/02 08:50:06;;;;;;;6.80;4.40;;;;;;;20.73;64.52;101550.50;1705582;83;21075;-76
2021/09/02 08:52:32;;;;;;;8.13;4.60;;;;;;;20.76;64.32;101550.08;1705509;83;21484;-76
2021/09/02 08:54:58;;;;;;;7.28;4.12;;;;;;;20.71;64.09;101538.20;1705767;84;22718;-76
2021/09/02 08:57:24;;;;;;;9.10;3.98;;;;;;;20.79;63.89;101537.45;1705491;83;20893;-76
2021/09/02 08:59:50;;;;;;;8.30;4.67;;;;;;;20.88;63.57;101543.00;1705737;83;21048;-76
2021/09/02 09:02:30;;;;;;;7.72;4.70;;;;;;;21.00;63.23;101540.50;1705155;84;21028;-76
2021/09/02 09:05:09;;;;;;;6.92;4.17;;;;;;;21.09;62.95;101541.93;1705562;83;21051;-76
2021/09/02 09:07:47;;;;;;;5.50;4.33;;;;;;;21.08;62.57;101538.90;1704890;84;22452;-76
2021/09/02 09:10:18;;;;;;;8.40;4.22;;;;;;;21.11;62.26;101542.57;1704714;84;21051;-76
2021/09/02 09:12:47;;;;;;;10.03;4.67;;;;;;;21.20;61.96;101544.03;1705674;83;20980;-76
2021/09/02 09:15:22;;;;;;;5.17;4.33;;;;;;;21.25;61.60;101538.79;1705410;84;21015;-76
2021/09/02 09:17:49;;;;;;;5.47;4.15;;;;;;;21.19;61.30;101534.22;1705228;83;21040;-76
2021/09/02 09:20:20;;;;;;;10.48;5.03;;;;;;;21.14;61.00;101535.39;1705605;84;22465;-76
2021/09/02 09:22:56;;;;;;;5.83;4.42;;;;;;;21.16;60.74;101537.88;1705121;84;20976;-76
2021/09/02 09:25:22;;;;;;;7.35;4.47;;;;;;;21.25;60.41;101537.44;1704780;84;21024;-76
2021/09/02 09:27:50;;;;;;;6.00;4.00;;;;;;;21.21;60.17;101538.09;1705518;84;21019;-76
2021/09/02 09:30:28;;;;;;;7.55;4.12;;;;;;;21.29;60.06;101542.75;1713974;83;20999;-76
2021/09/02 09:32:59;;;;;;;7.58;4.08;;;;;;;21.29;59.85;101537.33;1713669;83;21625;-76
2021/09/02 09:35:31;;;;;;;5.87;4.00;;;;;;;21.23;59.56;101543.61;1713408;83;21960;-76
2021/09/02 09:38:21;;;;;;;5.08;4.03;;;;;;;21.16;59.38;101541.95;1705678;84;21070;-76
2021/09/02 09:40:50;;;;;;;8.18;4.33;;;;;;;21.18;59.15;101539.33;1705444;84;21055;-76
2021/09/02 09:43:22;;;;;;;5.85;4.08;;;;;;;21.22;58.89;101543.80;1683947;84;21047;-76
2021/09/02 09:45:50;;;;;;;6.00;4.25;;;;;;;21.20;58.56;101539.97;1705580;84;21649;-76
2021/09/02 09:48:35;;;;;;;7.42;5.17;;;;;;;21.23;58.42;101540.89;1705467;84;21004;-76
2021/09/02 09:51:15;;;;;;;8.60;5.00;;;;;;;21.29;58.16;101545.47;1707595;82;21019;-76
2021/09/02 09:53:45;;;;;;;;;;;;;;;21.35;57.93;101541.09;1718934;82;21051;-76
2021/09/02 09:56:12;;;;;;;8.08;4.97;;;;;;;21.43;57.73;101537.31;1703575;82;20176;-76
2021/09/02 09:58:38;;;;;;;6.42;4.30;;;;;;;21.48;57.58;101534.77;1698564;84;22812;-76
2021/09/02 10:01:05;;;;;;;8.15;4.83;;;;;;;21.60;57.46;101532.55;1712651;82;21043;-76
2021/09/02 10:03:32;;;;;;;9.30;4.75;;;;;;;21.68;57.20;101540.96;1741600;82;20996;-76
2021/09/02 10:06:07;;;;;;;8.03;4.70;;;;;;;21.80;56.93;101531.11;1742228;82;21142;-76
2021/09/02 10:08:38;;;;;;;12.40;5.15;;;;;;;21.80;56.55;101527.03;1716929;82;21027;-76
2021/09/02 10:11:06;;;;;;;26.05;9.33;;;;;;;21.69;56.00;101534.49;1702965;83;21683;-76
2021/09/02 10:13:32;;;;;;;5.62;4.00;;;;;;;21.60;55.42;101523.58;1720195;82;20990;-76
2021/09/02 10:15:59;;;;;;;6.70;4.58;;;;;;;21.52;54.91;101527.88;1685032;85;21066;-76
2021/09/02 10:18:26;;;;;;;7.35;4.47;;;;;;;21.56;54.70;101533.19;1704379;82;20992;-76
2021/09/02 10:20:52;;;;;;;9.93;5.37;;;;;;;21.61;54.36;101529.29;1708234;84;21461;-76
2021/09/02 10:23:24;;;;;;;8.60;4.85;;;;;;;21.68;54.08;101531.45;1686909;82;21691;-76
2021/09/02 10:25:50;;;;;;;6.53;4.62;;;;;;;21.71;53.88;101521.55;1696925;82;21161;-77
2021/09/02 10:28:31;;;;;;;9.53;5.60;;;;;;;21.79;53.72;101532.14;1710637;83;21032;-77
2021/09/02 10:31:04;;;;;;;12.28;4.67;;;;;;;21.79;53.54;101532.14;1710703;83;21064;-76
2021/09/02 10:33:44;;;;;;;11.12;5.75;;;;;;;21.81;53.27;101532.78;1710951;83;21469;-76
2021/09/02 10:36:19;;;;;;;25.15;7.67;;;;;;;21.80;53.01;101525.16;1710962;83;21721;-76
2021/09/02 10:38:52;;;;;;;12.93;5.70;;;;;;;21.78;52.58;101534.55;1711134;83;21445;-76
2021/09/02 10:41:41;;;;;;;13.50;5.62;;;;;;;21.72;52.16;101529.47;1710934;83;21030;-76
2021/09/02 10:44:08;;;;;;;21.93;8.18;;;;;;;21.70;51.83;101520.71;1707540;83;21047;-76
2021/09/02 10:46:50;;;;;;;6.70;4.22;;;;;;;21.69;51.33;101520.91;1710957;83;21432;-76
2021/09/02 10:49:31;;;;;;;13.93;5.05;;;;;;;21.70;51.20;101518.52;1690550;84;21565;-76
2021/09/02 10:52:07;;;;;;;15.88;5.83;;;;;;;21.70;50.91;101518.00;1715794;83;21117;-76
2021/09/02 10:54:36;;;;;;;23.92;6.87;;;;;;;21.81;50.84;101513.77;1709783;82;21004;-76
2021/09/02 10:57:11;;;;;;;10.88;5.22;;;;;;;21.89;50.83;101516.21;1718704;83;21014;-76
2021/09/02 10:59:40;;;;;;;5.03;4.08;;;;;;;21.89;50.71;101510.78;1721364;82;21067;-76
2021/09/02 11:02:11;;;;;;;;;;;;;;;21.92;50.67;101510.38;1711980;83;21683;-76
2021/09/02 11:04:38;;;;;;;8.45;6.15;;;;;;;21.97;50.62;101505.66;1705119;83;20192;-76
2021/09/02 11:07:04;;;;;;;7.10;4.05;;;;;;;21.97;50.59;101509.21;1691173;84;21047;-76
2021/09/02 11:09:34;;;;;;;5.72;4.42;;;;;;;22.04;50.55;101512.73;1691093;84;21513;-76
2021/09/02 11:12:01;;;;;;;6.35;4.17;;;;;;;22.09;50.56;101512.08;1697336;83;20943;-76
2021/09/02 11:14:27;;;;;;;14.23;4.45;;;;;;;22.13;50.50;101507.33;1714491;82;21828;-76
2021/09/02 11:16:53;;;;;;;5.10;4.25;;;;;;;22.16;50.58;101515.06;1709483;82;20937;-76
2021/09/02 11:19:37;;;;;;;5.40;3.70;;;;;;;22.16;50.39;101512.35;1703878;83;20997;-76
2021/09/02 11:22:12;;;;;;;6.22;3.77;;;;;;;22.20;50.38;101516.27;1706503;83;21460;-76